Time,TemperatureF,DewpointF,PressureIn,WindDirection,WindDirectionDegrees,WindSpeedMPH,WindSpeedGustMPH,Humidity,HourlyPrecipIn,Conditions,Clouds,dailyrainin,SoftwareType,DateUTC
2013-01-22 00:33:00,42.0,-99.9,-100.00,West,280,36.0,48.0,-999,-99.99,,,-99.99,,2013-01-22 07:33:00,
2013-01-22 01:33:00,41.0,-99.9,-100.00,West,281,33.0,45.0,-999,-99.99,,,-99.99,,2013-01-22 08:33:00,
2013-01-22 02:33:00,41.0,-99.9,-100.00,West,280,32.0,49.0,-999,-99.99,,,-99.99,,2013-01-22 09:33:00,
2013-01-22 03:33:00,41.0,-99.9,-100.00,West,275,42.0,57.0,-999,-99.99,,,-99.99,,2013-01-22 10:33:00,
2013-01-22 04:33:00,41.0,-99.9,-100.00,West,281,28.0,40.0,-999,-99.99,,,-99.99,,2013-01-22 11:33:00,
2013-01-22 05:33:00,41.0,-99.9,-100.00,WNW,296,28.0,43.0,-999,-99.99,,,-99.99,,2013-01-22 12:33:00,
2013-01-22 06:34:00,43.0,-99.9,-100.00,West,277,45.0,59.0,-999,-99.99,,,-99.99,,2013-01-22 13:34:00,
2013-01-22 07:34:00,40.0,-99.9,-100.00,West,272,34.0,42.0,-999,-99.99,,,-99.99,,2013-01-22 14:34:00,
2013-01-22 08:34:00,41.0,-99.9,-100.00,West,272,33.0,44.0,-999,-99.99,,,-99.99,,2013-01-22 15:34:00,
2013-01-22 09:34:00,41.0,-99.9,-100.00,NW,307,18.0,30.0,-999,-99.99,,,-99.99,,2013-01-22 16:34:00,
2013-01-22 10:35:00,44.0,-99.9,-100.00,NW,307,20.0,26.0,-999,-99.99,,,-99.99,,2013-01-22 17:35:00,
2013-01-22 11:00:00,38.0,-99.9,-100.00,NNW,346,9.0,13.0,-999,-99.99,,,-99.99,,2013-01-22 18:00:00,
2013-01-22 11:34:00,38.0,-99.9,-100.00,NNW,346,9.0,13.0,-999,-99.99,,,-99.99,,2013-01-22 18:34:00,
2013-01-22 11:44:00,38.0,-99.9,-100.00,NNW,346,9.0,13.0,-999,-99.99,,,-99.99,,2013-01-22 18:44:00,
2013-01-22 11:54:00,38.0,-99.9,-100.00,NNW,346,9.0,13.0,-999,-99.99,,,-99.99,,2013-01-22 18:54:00,
2013-01-22 12:00:00,44.0,-99.9,-100.00,NW,322,10.0,15.0,-999,-99.99,,,-99.99,,2013-01-22 19:00:00,
2013-01-22 12:34:00,44.0,-99.9,-100.00,NW,322,10.0,15.0,-999,-99.99,,,-99.99,,2013-01-22 19:34:00,
2013-01-22 12:44:00,44.0,-99.9,-100.00,NW,322,10.0,15.0,-999,-99.99,,,-99.99,,2013-01-22 19:44:00,
2013-01-22 12:54:00,44.0,-99.9,-100.00,NW,322,10.0,15.0,-999,-99.99,,,-99.99,,2013-01-22 19:54:00,
2013-01-22 13:00:00,48.0,-99.9,-100.00,NNW,348,15.0,23.0,-999,-99.99,,,-99.99,,2013-01-22 20:00:00,
2013-01-22 13:34:00,48.0,-99.9,-100.00,NNW,348,15.0,23.0,-999,-99.99,,,-99.99,,2013-01-22 20:34:00,
2013-01-22 13:43:00,48.0,-99.9,-100.00,NNW,348,15.0,23.0,-999,-99.99,,,-99.99,,2013-01-22 20:43:00,
2013-01-22 13:54:00,48.0,-99.9,-100.00,NNW,348,15.0,23.0,-999,-99.99,,,-99.99,,2013-01-22 20:54:00,
2013-01-22 14:34:00,52.0,-99.9,-100.00,West,281,21.0,30.0,-999,-99.99,,,-99.99,,2013-01-22 21:34:00,
2013-01-22 15:33:00,53.0,-99.9,-100.00,West,280,28.0,35.0,-999,-99.99,,,-99.99,,2013-01-22 22:33:00,
2013-01-22 16:34:00,50.0,-99.9,-100.00,WNW,300,21.0,32.0,-999,-99.99,,,-99.99,,2013-01-22 23:34:00,
2013-01-22 17:33:00,48.0,-99.9,-100.00,WNW,291,23.0,32.0,-999,-99.99,,,-99.99,,2013-01-23 00:33:00,
2013-01-22 18:33:00,47.0,-99.9,-100.00,West,280,24.0,34.0,-999,-99.99,,,-99.99,,2013-01-23 01:33:00,
2013-01-22 19:33:00,47.0,-99.9,-100.00,West,280,30.0,40.0,-999,-99.99,,,-99.99,,2013-01-23 02:33:00,
2013-01-22 20:33:00,48.0,-99.9,-100.00,West,269,39.0,54.0,-999,-99.99,,,-99.99,,2013-01-23 03:33:00,
2013-01-22 21:33:00,48.0,-99.9,-100.00,West,263,36.0,44.0,-999,-99.99,,,-99.99,,2013-01-23 04:33:00,
2013-01-22 22:33:00,47.0,-99.9,-100.00,WSW,247,33.0,45.0,-999,-99.99,,,-99.99,,2013-01-23 05:33:00,
2013-01-22 23:33:00,47.0,-99.9,-100.00,WSW,247,30.0,38.0,-999,-99.99,,,-99.99,,2013-01-23 06:33:00,